Time;durP1;ratioP1;P1;durP2;ratioP2;P2;SDS_P1;SDS_P2;PMS_P1;PMS_P2;Temp;Humidity;BMP_temperature;BMP_pressure;BME280_temperature;BME280_humidity;BME280_pressure;Samples;Min_cycle;Max_cycle;Signal;HPM_P1;HPM_P2
2022/09/23 00:01:54;;;;;;;7.18;3.67;;;;;;;;;;5015289;28;20037;-65
2022/09/23 00:04:20;;;;;;;9.18;4.28;;;;;;;;;;5015442;28;20065;-65
2022/09/23 00:06:46;;;;;;;6.07;3.90;;;;;;;;;;5016822;28;20028;-65
2022/09/23 00:09:13;;;;;;;7.97;4.57;;;;;;;;;;5035059;28;20478;-65
2022/09/23 00:11:39;;;;;;;12.93;3.58;;;;;;;;;;5034651;28;20041;-65
2022/09/23 00:14:05;;;;;;;6.50;3.28;;;;;;;;;;5025788;28;20034;-65
2022/09/23 00:16:32;;;;;;;7.68;3.60;;;;;;;;;;5015227;28;20076;-65
2022/09/23 00:18:59;;;;;;;9.05;3.72;;;;;;;;;;5014975;28;20053;-65
2022/09/23 00:21:26;;;;;;;9.25;4.25;;;;;;;;;;5014857;28;20021;-65
2022/09/23 00:23:52;;;;;;;5.85;3.83;;;;;;;;;;5014964;28;20172;-65
2022/09/23 00:26:20;;;;;;;5.53;3.75;;;;;;;;;;5016591;28;20040;-65
2022/09/23 00:28:46;;;;;;;7.15;3.53;;;;;;;;;;5034809;28;20370;-65
2022/09/23 00:31:14;;;;;;;7.38;3.47;;;;;;;;;;5034568;28;20108;-65
2022/09/23 00:33:40;;;;;;;10.13;3.80;;;;;;;;;;5034536;28;20036;-65
2022/09/23 00:36:09;;;;;;;6.10;3.72;;;;;;;;;;5034132;28;20018;-65
2022/09/23 00:38:36;;;;;;;7.05;4.00;;;;;;;;;;5034653;28;20038;-65
2022/09/23 00:41:02;;;;;;;5.20;3.53;;;;;;;;;;5034150;28;20029;-65
2022/09/23 00:43:39;;;;;;;4.55;3.78;;;;;;;;;;5034349;28;20432;-65
2022/09/23 00:46:07;;;;;;;5.45;3.55;;;;;;;;;;5034208;28;20033;-65
2022/09/23 00:48:35;;;;;;;6.20;3.72;;;;;;;;;;5033934;28;20039;-65
2022/09/23 00:51:01;;;;;;;8.02;4.07;;;;;;;;;;5034248;28;20021;-65
2022/09/23 00:53:27;;;;;;;5.82;4.07;;;;;;;;;;5034290;28;20770;-65
2022/09/23 00:55:59;;;;;;;5.10;4.18;;;;;;;;;;5023703;28;20021;-65
2022/09/23 00:58:27;;;;;;;10.57;4.18;;;;;;;;;;5014413;28;20041;-65
2022/09/23 01:00:54;;;;;;;6.68;4.75;;;;;;;;;;5014345;28;20403;-65
2022/09/23 01:03:21;;;;;;;5.88;3.95;;;;;;;;;;5014115;28;20562;-65
2022/09/23 01:05:48;;;;;;;6.30;3.40;;;;;;;;;;5014071;28;20017;-65
2022/09/23 01:08:14;;;;;;;9.68;4.03;;;;;;;;;;5014087;28;20034;-65
2022/09/23 01:10:40;;;;;;;5.80;3.63;;;;;;;;;;5013970;28;20046;-65
2022/09/23 01:13:12;;;;;;;5.25;4.18;;;;;;;;;;5013979;28;20034;-65
2022/09/23 01:15:39;;;;;;;4.75;3.55;;;;;;;;;;5014111;28;20065;-65
2022/09/23 01:18:25;;;;;;;5.72;3.85;;;;;;;;;;5013716;28;20038;-65
2022/09/23 01:21:01;;;;;;;7.10;4.10;;;;;;;;;;5013891;28;20111;-65
2022/09/23 01:23:27;;;;;;;7.05;4.10;;;;;;;;;;5013798;28;20026;-65
2022/09/23 01:25:53;;;;;;;12.00;4.50;;;;;;;;;;5013952;28;20398;-65
2022/09/23 01:28:28;;;;;;;7.20;4.38;;;;;;;;;;5013617;28;20026;-65
2022/09/23 01:30:54;;;;;;;6.72;4.20;;;;;;;;;;5013760;28;20065;-65
2022/09/23 01:33:24;;;;;;;7.25;4.20;;;;;;;;;;5022273;28;20021;-65
2022/09/23 01:36:13;;;;;;;8.38;4.47;;;;;;;;;;5033079;28;20017;-65
2022/09/23 01:38:43;;;;;;;7.28;4.38;;;;;;;;;;5033268;28;20033;-65
2022/09/23 01:41:11;;;;;;;8.00;4.78;;;;;;;;;;5030837;28;20021;-65
2022/09/23 01:44:00;;;;;;;8.23;4.22;;;;;;;;;;5013738;28;20057;-65
2022/09/23 01:46:29;;;;;;;6.80;4.47;;;;;;;;;;5015479;28;20053;-65
2022/09/23 01:49:00;;;;;;;7.32;4.10;;;;;;;;;;5013177;28;20463;-65
2022/09/23 01:51:29;;;;;;;6.78;4.70;;;;;;;;;;5029741;28;20025;-65
2022/09/23 01:54:05;;;;;;;6.85;4.93;;;;;;;;;;5032856;28;20037;-65
2022/09/23 01:56:34;;;;;;;5.63;4.38;;;;;;;;;;5033110;28;20548;-65
2022/09/23 01:59:11;;;;;;;7.03;4.70;;;;;;;;;;5033004;28;20541;-65
2022/09/23 02:01:47;;;;;;;8.05;4.55;;;;;;;;;;5025999;28;20034;-65
2022/09/23 02:04:17;;;;;;;9.60;4.72;;;;;;;;;;5012920;28;20043;-65
2022/09/23 02:06:49;;;;;;;9.70;4.75;;;;;;;;;;5013072;28;20061;-65
2022/09/23 02:09:18;;;;;;;7.60;4.57;;;;;;;;;;5013015;28;20470;-65
2022/09/23 02:11:47;;;;;;;9.15;4.32;;;;;;;;;;5013027;28;20050;-65
2022/09/23 02:14:14;;;;;;;7.05;4.50;;;;;;;;;;5012936;28;20105;-65
2022/09/23 02:16:46;;;;;;;11.98;4.90;;;;;;;;;;5013138;28;20145;-65
2022/09/23 02:19:15;;;;;;;9.27;5.00;;;;;;;;;;5012703;28;20104;-65
2022/09/23 02:21:44;;;;;;;7.25;4.50;;;;;;;;;;5017091;28;20322;-65
2022/09/23 02:24:18;;;;;;;5.75;4.32;;;;;;;;;;5032623;28;20091;-65
2022/09/23 02:27:03;;;;;;;10.52;4.63;;;;;;;;;;5032820;28;20037;-65
2022/09/23 02:29:48;;;;;;;7.78;4.43;;;;;;;;;;5025165;28;20026;-65
2022/09/23 02:32:30;;;;;;;8.02;4.47;;;;;;;;;;5012766;28;20030;-65
2022/09/23 02:35:14;;;;;;;5.63;3.92;;;;;;;;;;5013019;28;20038;-65
2022/09/23 02:37:59;;;;;;;7.97;4.60;;;;;;;;;;5011395;28;20034;-65
2022/09/23 02:40:46;;;;;;;7.57;5.10;;;;;;;;;;5012660;28;20060;-65
2022/09/23 02:43:18;;;;;;;10.20;5.10;;;;;;;;;;5012508;28;20410;-65
2022/09/23 02:45:45;;;;;;;10.98;5.13;;;;;;;;;;5012982;28;20041;-65
2022/09/23 02:48:18;;;;;;;8.50;5.10;;;;;;;;;;5012508;28;20057;-65
2022/09/23 02:50:46;;;;;;;8.30;5.18;;;;;;;;;;5012606;28;20034;-65
2022/09/23 02:53:15;;;;;;;8.90;4.78;;;;;;;;;;5012882;28;20033;-65
2022/09/23 02:55:41;;;;;;;8.00;5.57;;;;;;;;;;5012675;28;20113;-65
2022/09/23 02:58:08;;;;;;;8.15;5.28;;;;;;;;;;5017292;28;20026;-64
2022/09/23 03:00:46;;;;;;;8.90;4.78;;;;;;;;;;5032179;28;20032;-64
2022/09/23 03:03:22;;;;;;;6.15;4.03;;;;;;;;;;5032301;28;20362;-64
2022/09/23 03:05:53;;;;;;;9.80;4.95;;;;;;;;;;5032344;28;20025;-64
2022/09/23 03:08:38;;;;;;;9.63;5.20;;;;;;;;;;5012537;28;20022;-64
2022/09/23 03:11:04;;;;;;;9.15;6.20;;;;;;;;;;5013489;28;20512;-64
2022/09/23 03:13:49;;;;;;;8.88;6.43;;;;;;;;;;5016153;28;20018;-64
2022/09/23 03:16:38;;;;;;;12.00;6.95;;;;;;;;;;5015813;28;20041;-64
2022/09/23 03:19:32;;;;;;;10.93;6.32;;;;;;;;;;5016183;28;20042;-64
2022/09/23 03:21:59;;;;;;;9.40;6.07;;;;;;;;;;5015183;28;20053;-64
2022/09/23 03:24:27;;;;;;;6.78;5.35;;;;;;;;;;5015810;28;20118;-64
2022/09/23 03:26:54;;;;;;;12.32;5.50;;;;;;;;;;5022929;28;20370;-64
2022/09/23 03:29:21;;;;;;;9.73;5.68;;;;;;;;;;5035356;28;20079;-64
2022/09/23 03:31:48;;;;;;;10.50;6.18;;;;;;;;;;5035506;28;20030;-64
2022/09/23 03:34:22;;;;;;;9.75;5.97;;;;;;;;;;5035596;28;20034;-64
2022/09/23 03:37:05;;;;;;;8.05;6.25;;;;;;;;;;5015997;28;20030;-64
2022/09/23 03:39:43;;;;;;;9.88;5.20;;;;;;;;;;5015697;28;20085;-64
2022/09/23 03:42:15;;;;;;;10.68;6.18;;;;;;;;;;5015770;28;20037;-64
2022/09/23 03:44:45;;;;;;;13.75;6.35;;;;;;;;;;5015649;28;20038;-64
2022/09/23 03:47:13;;;;;;;9.52;6.10;;;;;;;;;;5027176;28;20021;-64
2022/09/23 03:49:40;;;;;;;10.88;6.40;;;;;;;;;;5035209;28;20104;-64
2022/09/23 03:52:06;;;;;;;9.80;6.57;;;;;;;;;;5035306;28;20025;-65
2022/09/23 03:54:32;;;;;;;11.07;6.38;;;;;;;;;;5035117;28;20033;-65
2022/09/23 03:56:59;;;;;;;15.18;6.35;;;;;;;;;;5035572;28;20025;-65
2022/09/23 03:59:26;;;;;;;11.27;7.00;;;;;;;;;;5034944;28;20083;-65
2022/09/23 04:01:52;;;;;;;9.70;6.40;;;;;;;;;;5017206;28;20033;-65
2022/09/23 04:04:18;;;;;;;10.55;6.47;;;;;;;;;;5012359;28;20022;-65
2022/09/23 04:06:45;;;;;;;13.93;7.05;;;;;;;;;;5015001;28;20042;-64
2022/09/23 04:09:11;;;;;;;12.50;6.90;;;;;;;;;;5015192;28;20080;-65
2022/09/23 04:11:37;;;;;;;12.52;7.00;;;;;;;;;;5014825;28;20129;-65
2022/09/23 04:14:03;;;;;;;12.85;7.40;;;;;;;;;;5014925;28;20022;-64
2022/09/23 04:16:30;;;;;;;9.05;6.50;;;;;;;;;;5003025;28;20065;-65
2022/09/23 04:18:56;;;;;;;9.43;6.32;;;;;;;;;;4995508;28;20034;-65
2022/09/23 04:21:22;;;;;;;9.75;6.90;;;;;;;;;;5005822;28;20045;-64
2022/09/23 04:23:48;;;;;;;8.57;6.80;;;;;;;;;;5014491;28;20021;-64
2022/09/23 04:26:14;;;;;;;10.38;5.80;;;;;;;;;;5012424;28;20482;-64
2022/09/23 04:28:40;;;;;;;10.70;6.68;;;;;;;;;;5010741;28;20552;-65
2022/09/23 04:31:08;;;;;;;10.50;7.18;;;;;;;;;;5034767;28;20382;-64
2022/09/23 04:33:34;;;;;;;10.45;6.68;;;;;;;;;;5034155;28;20466;-64
2022/09/23 04:36:00;;;;;;;8.63;6.55;;;;;;;;;;5034443;28;20056;-64
2022/09/23 04:38:27;;;;;;;11.02;7.75;;;;;;;;;;5034426;28;20389;-64
2022/09/23 04:40:53;;;;;;;8.40;6.40;;;;;;;;;;5034506;28;20014;-64
2022/09/23 04:43:22;;;;;;;13.80;6.70;;;;;;;;;;5034207;28;20087;-64
2022/09/23 04:45:58;;;;;;;12.85;7.97;;;;;;;;;;5034319;28;20037;-64
2022/09/23 04:48:24;;;;;;;13.77;8.20;;;;;;;;;;5034147;28;20142;-64
2022/09/23 04:50:50;;;;;;;13.75;8.02;;;;;;;;;;5020885;28;20049;-64
2022/09/23 04:53:17;;;;;;;16.30;8.95;;;;;;;;;;5014293;28;20038;-64
2022/09/23 04:55:44;;;;;;;13.27;8.77;;;;;;;;;;5013295;28;20014;-64
2022/09/23 04:58:10;;;;;;;12.00;8.68;;;;;;;;;;5011825;28;20080;-65
2022/09/23 05:00:36;;;;;;;14.65;9.00;;;;;;;;;;5013879;28;20026;-64
2022/09/23 05:03:03;;;;;;;13.65;8.98;;;;;;;;;;5012351;28;20045;-65
2022/09/23 05:05:30;;;;;;;18.48;9.40;;;;;;;;;;5014057;28;20030;-65
2022/09/23 05:07:56;;;;;;;21.80;10.55;;;;;;;;;;5014041;28;20026;-65
2022/09/23 05:10:23;;;;;;;13.52;9.57;;;;;;;;;;5013968;28;20053;-65
2022/09/23 05:12:49;;;;;;;15.82;9.00;;;;;;;;;;5013818;28;20033;-65
2022/09/23 05:15:15;;;;;;;16.95;9.80;;;;;;;;;;5013812;28;20042;-65
2022/09/23 05:17:44;;;;;;;14.13;9.52;;;;;;;;;;5013758;28;20037;-65
2022/09/23 05:20:12;;;;;;;17.35;9.98;;;;;;;;;;5012247;28;20057;-65
2022/09/23 05:22:38;;;;;;;18.52;10.32;;;;;;;;;;5013352;28;20431;-65
2022/09/23 05:25:04;;;;;;;21.30;11.45;;;;;;;;;;5013794;28;20022;-65
2022/09/23 05:27:30;;;;;;;18.30;10.93;;;;;;;;;;5010597;28;20394;-65
2022/09/23 05:29:57;;;;;;;16.98;10.40;;;;;;;;;;5009978;28;20033;-65
2022/09/23 05:32:23;;;;;;;19.05;10.52;;;;;;;;;;5013619;28;20053;-65
2022/09/23 05:34:49;;;;;;;16.80;10.35;;;;;;;;;;4997118;28;20030;-65
2022/09/23 05:37:15;;;;;;;16.45;11.18;;;;;;;;;;5000029;28;20034;-65
2022/09/23 05:39:41;;;;;;;15.38;10.07;;;;;;;;;;5013070;28;20018;-65
2022/09/23 05:42:08;;;;;;;16.27;10.15;;;;;;;;;;5000639;28;20030;-65
2022/09/23 05:44:34;;;;;;;14.70;9.88;;;;;;;;;;5008312;28;20021;-65
2022/09/23 05:47:00;;;;;;;18.08;9.90;;;;;;;;;;5033439;28;20468;-65
2022/09/23 05:49:26;;;;;;;17.33;9.55;;;;;;;;;;5029577;28;20112;-65
2022/09/23 05:51:53;;;;;;;16.95;9.85;;;;;;;;;;5012197;28;20025;-65
2022/09/23 05:54:19;;;;;;;15.85;9.82;;;;;;;;;;5011233;28;20053;-65
2022/09/23 05:56:45;;;;;;;16.65;9.35;;;;;;;;;;5012763;28;20117;-65
2022/09/23 05:59:11;;;;;;;14.35;9.45;;;;;;;;;;5013207;28;20445;-65
2022/09/23 06:01:38;;;;;;;16.70;9.32;;;;;;;;;;4996391;28;20084;-65
2022/09/23 06:04:05;;;;;;;14.48;9.57;;;;;;;;;;4997181;28;20061;-65
2022/09/23 06:06:33;;;;;;;15.48;10.10;;;;;;;;;;5012974;28;20042;-65
2022/09/23 06:08:59;;;;;;;19.10;11.98;;;;;;;;;;5001770;28;20575;-65
2022/09/23 06:11:26;;;;;;;18.67;11.93;;;;;;;;;;5001736;28;20038;-65
2022/09/23 06:13:59;;;;;;;23.55;13.35;;;;;;;;;;5008357;28;20032;-65
2022/09/23 06:16:26;;;;;;;25.63;13.77;;;;;;;;;;5002082;28;20034;-65
2022/09/23 06:18:52;;;;;;;21.05;13.65;;;;;;;;;;4994543;28;20037;-65
2022/09/23 06:21:18;;;;;;;17.52;12.40;;;;;;;;;;5003536;28;20056;-65
2022/09/23 06:23:45;;;;;;;19.33;12.80;;;;;;;;;;4993084;28;20042;-64
2022/09/23 06:26:13;;;;;;;18.13;11.98;;;;;;;;;;5000128;28;20025;-65
2022/09/23 06:28:39;;;;;;;19.15;12.88;;;;;;;;;;5012156;28;20034;-65
2022/09/23 06:31:07;;;;;;;19.75;11.63;;;;;;;;;;5012170;28;20033;-65
2022/09/23 06:33:34;;;;;;;21.98;13.10;;;;;;;;;;5006330;28;20018;-64
2022/09/23 06:36:01;;;;;;;17.60;12.20;;;;;;;;;;5004407;28;20418;-65
2022/09/23 06:38:27;;;;;;;22.00;13.80;;;;;;;;;;5007318;28;20015;-65
2022/09/23 06:40:54;;;;;;;24.80;15.00;;;;;;;;;;5011796;28;20034;-65
2022/09/23 06:43:21;;;;;;;25.48;14.13;;;;;;;;;;4998248;28;20071;-65
2022/09/23 06:45:54;;;;;;;27.90;14.52;;;;;;;;;;5012971;28;20033;-65
2022/09/23 06:48:21;;;;;;;27.95;16.75;;;;;;;;;;5012707;28;20150;-65
2022/09/23 06:50:50;;;;;;;25.25;15.90;;;;;;;;;;5003654;28;20034;-65
2022/09/23 06:53:17;;;;;;;26.00;15.10;;;;;;;;;;5009558;28;20390;-65
2022/09/23 06:55:43;;;;;;;26.20;15.13;;;;;;;;;;5010007;28;20040;-64
2022/09/23 06:58:10;;;;;;;30.65;16.88;;;;;;;;;;5011141;28;20426;-65
2022/09/23 07:00:36;;;;;;;30.38;17.48;;;;;;;;;;5005304;28;20026;-64
2022/09/23 07:03:06;;;;;;;28.02;17.17;;;;;;;;;;5006921;28;20049;-65
2022/09/23 07:05:33;;;;;;;25.67;16.17;;;;;;;;;;5006553;28;20045;-65
2022/09/23 07:07:59;;;;;;;25.77;15.40;;;;;;;;;;5007673;28;20137;-65
2022/09/23 07:10:29;;;;;;;24.02;15.23;;;;;;;;;;5005854;28;20046;-65
2022/09/23 07:12:56;;;;;;;27.02;16.70;;;;;;;;;;5005000;28;20065;-64
2022/09/23 07:15:22;;;;;;;30.67;17.35;;;;;;;;;;5010414;28;20120;-65
2022/09/23 07:17:48;;;;;;;29.98;17.52;;;;;;;;;;5013066;28;20044;-65
2022/09/23 07:20:16;;;;;;;27.00;16.60;;;;;;;;;;5010326;28;20032;-65
2022/09/23 07:22:43;;;;;;;30.20;15.95;;;;;;;;;;5008788;28;20042;-65
2022/09/23 07:25:10;;;;;;;29.15;17.42;;;;;;;;;;5008587;28;20030;-64
2022/09/23 07:27:37;;;;;;;28.42;17.10;;;;;;;;;;5007172;28;20049;-65
2022/09/23 07:30:03;;;;;;;29.65;17.42;;;;;;;;;;5006295;28;20041;-65
2022/09/23 07:32:29;;;;;;;28.25;16.83;;;;;;;;;;5007338;28;20029;-65
2022/09/23 07:34:56;;;;;;;25.88;15.82;;;;;;;;;;5013670;28;20048;-65
2022/09/23 07:37:22;;;;;;;29.58;15.85;;;;;;;;;;5019012;28;20037;-65
2022/09/23 07:39:49;;;;;;;26.75;16.15;;;;;;;;;;5002891;28;20030;-65
2022/09/23 07:42:16;;;;;;;27.00;15.93;;;;;;;;;;5008485;28;20038;-65
2022/09/23 07:44:46;;;;;;;29.48;17.35;;;;;;;;;;5010191;28;20028;-65
2022/09/23 07:47:12;;;;;;;28.20;16.92;;;;;;;;;;5000642;28;20022;-65
2022/09/23 07:49:39;;;;;;;29.42;15.90;;;;;;;;;;5008683;28;20105;-65
2022/09/23 07:52:05;;;;;;;26.73;16.58;;;;;;;;;;5008978;28;20030;-65
2022/09/23 07:54:31;;;;;;;31.10;17.77;;;;;;;;;;5005980;28;20019;-65
2022/09/23 07:56:58;;;;;;;29.90;16.92;;;;;;;;;;5002089;28;20030;-65
2022/09/23 07:59:25;;;;;;;31.02;16.48;;;;;;;;;;5003671;28;20033;-65
2022/09/23 08:01:52;;;;;;;31.08;18.10;;;;;;;;;;5006256;28;20049;-65
2022/09/23 08:04:23;;;;;;;29.95;18.20;;;;;;;;;;5008153;28;20109;-65
2022/09/23 08:06:50;;;;;;;30.95;17.45;;;;;;;;;;5010128;28;20482;-64
2022/09/23 08:09:17;;;;;;;33.22;17.00;;;;;;;;;;5006303;28;20026;-65
2022/09/23 08:11:43;;;;;;;28.92;17.40;;;;;;;;;;5004794;28;20046;-64
2022/09/23 08:14:12;;;;;;;27.88;17.02;;;;;;;;;;5008599;28;20034;-65
2022/09/23 08:16:38;;;;;;;32.60;19.05;;;;;;;;;;5006502;28;20491;-64
2022/09/23 08:19:05;;;;;;;30.42;17.42;;;;;;;;;;5003893;28;20026;-64
2022/09/23 08:21:31;;;;;;;32.45;17.52;;;;;;;;;;5009192;28;20040;-64
2022/09/23 08:23:57;;;;;;;32.95;17.00;;;;;;;;;;5007186;28;20025;-64
2022/09/23 08:26:23;;;;;;;31.30;17.85;;;;;;;;;;5012718;28;20026;-64
2022/09/23 08:28:53;;;;;;;31.40;18.80;;;;;;;;;;5003687;28;20084;-64
2022/09/23 08:31:20;;;;;;;27.88;16.35;;;;;;;;;;5006793;28;20451;-64
2022/09/23 08:33:47;;;;;;;30.75;16.80;;;;;;;;;;5009371;28;20034;-64
2022/09/23 08:36:13;;;;;;;29.38;17.52;;;;;;;;;;5002590;28;20109;-64
2022/09/23 08:38:39;;;;;;;32.60;17.88;;;;;;;;;;5010792;28;20029;-64
2022/09/23 08:41:10;;;;;;;34.67;18.95;;;;;;;;;;5008217;28;20088;-64
2022/09/23 08:43:38;;;;;;;37.40;18.95;;;;;;;;;;5003447;28;20474;-64
2022/09/23 08:46:06;;;;;;;30.90;17.52;;;;;;;;;;5006387;28;20465;-65
2022/09/23 08:48:51;;;;;;;29.25;17.95;;;;;;;;;;5012569;28;20022;-65
2022/09/23 08:51:22;;;;;;;31.13;16.85;;;;;;;;;;5006202;28;20030;-65
2022/09/23 08:53:48;;;;;;;31.40;17.95;;;;;;;;;;5007637;28;20029;-65
2022/09/23 08:56:16;;;;;;;28.88;15.75;;;;;;;;;;5006204;28;20046;-65
2022/09/23 08:58:45;;;;;;;30.45;16.30;;;;;;;;;;5007266;28;20034;-65
2022/09/23 09:01:30;;;;;;;30.73;16.48;;;;;;;;;;5011944;28;20029;-65
2022/09/23 09:04:14;;;;;;;29.85;15.82;;;;;;;;;;5001171;28;20030;-65
2022/09/23 09:06:50;;;;;;;29.85;16.63;;;;;;;;;;5008869;28;20056;-65
2022/09/23 09:09:23;;;;;;;26.08;16.00;;;;;;;;;;5010232;28;20034;-65
2022/09/23 09:11:52;;;;;;;27.20;15.55;;;;;;;;;;5006126;28;20054;-65
2022/09/23 09:14:36;;;;;;;23.85;14.32;;;;;;;;;;5001496;28;20061;-65
2022/09/23 09:17:25;;;;;;;25.70;14.48;;;;;;;;;;5004427;28;20026;-65
2022/09/23 09:19:52;;;;;;;21.92;13.55;;;;;;;;;;4999583;28;20425;-65
2022/09/23 09:22:51;;;;;;;23.55;12.88;;;;;;;;;;5002096;28;20048;-65
2022/09/23 09:25:35;;;;;;;20.77;12.40;;;;;;;;;;4998888;28;20128;-65
2022/09/23 09:28:03;;;;;;;18.42;10.68;;;;;;;;;;5000529;28;20058;-65
2022/09/23 09:30:31;;;;;;;17.00;10.93;;;;;;;;;;5005049;28;20045;-65
2022/09/23 09:33:05;;;;;;;17.40;9.70;;;;;;;;;;4999514;28;20046;-65
2022/09/23 09:35:38;;;;;;;16.58;8.60;;;;;;;;;;5001630;28;20037;-66
2022/09/23 09:38:07;;;;;;;17.02;8.80;;;;;;;;;;5000503;28;20120;-65
2022/09/23 09:40:34;;;;;;;14.30;8.60;;;;;;;;;;5006431;28;20482;-66
2022/09/23 09:43:04;;;;;;;13.88;7.88;;;;;;;;;;5001576;28;20077;-65
2022/09/23 09:45:36;;;;;;;11.20;5.53;;;;;;;;;;5009466;28;20057;-65
2022/09/23 09:48:05;;;;;;;9.23;5.75;;;;;;;;;;5003148;28;20037;-65
2022/09/23 09:50:51;;;;;;;8.55;5.00;;;;;;;;;;5005557;28;20053;-65
2022/09/23 09:53:28;;;;;;;6.28;4.13;;;;;;;;;;4999003;28;20512;-65
2022/09/23 09:56:03;;;;;;;6.85;4.20;;;;;;;;;;4999025;28;20507;-66
2022/09/23 09:58:49;;;;;;;6.18;4.28;;;;;;;;;;5004642;28;20026;-66
2022/09/23 10:01:26;;;;;;;7.85;5.40;;;;;;;;;;5001774;28;20113;-66
2022/09/23 10:03:53;;;;;;;8.70;4.97;;;;;;;;;;4997694;28;20030;-65
2022/09/23 10:06:38;;;;;;;7.18;4.88;;;;;;;;;;5006591;28;20033;-65
2022/09/23 10:09:09;;;;;;;7.72;4.75;;;;;;;;;;5009558;28;20032;-66
2022/09/23 10:11:36;;;;;;;8.48;5.45;;;;;;;;;;5007659;28;20042;-65
2022/09/23 10:14:18;;;;;;;7.28;4.88;;;;;;;;;;5002230;28;20030;-65
2022/09/23 10:16:47;;;;;;;9.20;4.70;;;;;;;;;;5002729;28;20430;-65
2022/09/23 10:19:22;;;;;;;8.50;4.57;;;;;;;;;;5005005;28;20103;-66
2022/09/23 10:21:51;;;;;;;9.30;5.30;;;;;;;;;;4998282;28;20038;-66
2022/09/23 10:24:22;;;;;;;9.05;5.93;;;;;;;;;;5002090;28;20037;-65
2022/09/23 10:27:08;;;;;;;8.10;5.20;;;;;;;;;;5011288;28;20060;-65
2022/09/23 10:29:40;;;;;;;10.45;6.57;;;;;;;;;;5001163;28;20058;-65
2022/09/23 10:32:18;;;;;;;10.50;5.85;;;;;;;;;;5004545;28;20498;-65
2022/09/23 10:34:45;;;;;;;8.43;5.57;;;;;;;;;;4997241;28;20113;-65
2022/09/23 10:37:18;;;;;;;11.88;5.95;;;;;;;;;;5009795;28;20030;-65
2022/09/23 10:48:17;;;;;;;9.63;5.25;;;;;;;;;;5005344;28;20045;-65
2022/09/23 10:50:45;;;;;;;8.25;4.68;;;;;;;;;;5001437;28;20034;-65
2022/09/23 10:53:30;;;;;;;10.23;6.07;;;;;;;;;;5005223;28;20069;-65
2022/09/23 10:56:02;;;;;;;9.93;5.57;;;;;;;;;;5003234;28;20052;-65
2022/09/23 10:58:49;;;;;;;10.20;6.30;;;;;;;;;;5002499;28;20026;-65
2022/09/23 11:01:33;;;;;;;8.75;6.22;;;;;;;;;;5003359;28;20486;-65
2022/09/23 11:04:12;;;;;;;10.52;6.85;;;;;;;;;;4999307;28;20018;-65
2022/09/23 11:06:57;;;;;;;10.85;6.53;;;;;;;;;;5001783;28;20410;-65
2022/09/23 11:09:28;;;;;;;11.80;7.00;;;;;;;;;;5006043;28;20104;-65
2022/09/23 11:12:13;;;;;;;12.10;6.88;;;;;;;;;;5004109;28;20498;-65
2022/09/23 11:15:03;;;;;;;11.90;6.75;;;;;;;;;;5009563;28;20080;-65
2022/09/23 11:17:31;;;;;;;10.50;6.88;;;;;;;;;;4966397;28;20039;-65
2022/09/23 11:19:59;;;;;;;13.55;7.32;;;;;;;;;;4966412;28;20566;-65
2022/09/23 11:22:35;;;;;;;13.80;6.63;;;;;;;;;;4962282;28;20074;-65
2022/09/23 11:25:01;;;;;;;10.07;6.72;;;;;;;;;;4960641;28;20385;-65
2022/09/23 11:27:44;;;;;;;11.00;6.78;;;;;;;;;;4959610;28;20027;-65
2022/09/23 11:30:12;;;;;;;11.75;6.85;;;;;;;;;;4961206;28;20031;-65
2022/09/23 11:32:53;;;;;;;11.00;6.55;;;;;;;;;;4961734;28;20066;-65
2022/09/23 11:35:22;;;;;;;11.50;7.25;;;;;;;;;;4969386;28;20038;-66
2022/09/23 11:37:51;;;;;;;12.88;6.45;;;;;;;;;;4969829;28;20062;-65
2022/09/23 11:40:28;;;;;;;9.65;6.38;;;;;;;;;;4966486;28;20043;-65
2022/09/23 11:42:59;;;;;;;11.23;6.50;;;;;;;;;;4967065;28;20157;-65
2022/09/23 11:45:29;;;;;;;9.85;6.35;;;;;;;;;;4967412;28;20150;-65
2022/09/23 11:48:04;;;;;;;11.20;5.97;;;;;;;;;;4963790;28;20066;-65
2022/09/23 11:50:39;;;;;;;11.18;6.80;;;;;;;;;;4968151;28;20050;-65
2022/09/23 11:53:08;;;;;;;10.30;7.25;;;;;;;;;;4967497;28;20038;-65
2022/09/23 11:55:39;;;;;;;15.50;7.65;;;;;;;;;;5004915;28;20038;-65
2022/09/23 11:58:09;;;;;;;10.43;6.60;;;;;;;;;;5014405;28;20067;-65
2022/09/23 12:00:38;;;;;;;8.20;5.70;;;;;;;;;;5010089;28;20029;-65
2022/09/23 12:03:08;;;;;;;8.45;5.22;;;;;;;;;;5007817;28;20517;-65
2022/09/23 12:05:35;;;;;;;7.13;5.00;;;;;;;;;;5004976;28;20352;-65
2022/09/23 12:08:11;;;;;;;8.85;5.50;;;;;;;;;;5006902;28;20030;-65
2022/09/23 12:11:09;;;;;;;5.80;3.85;;;;;;;;;;5002847;28;20049;-65
2022/09/23 12:13:35;;;;;;;9.63;4.45;;;;;;;;;;5005489;28;20058;-65
2022/09/23 12:16:01;;;;;;;7.55;4.40;;;;;;;;;;5009987;28;20026;-65
2022/09/23 12:18:37;;;;;;;8.68;5.13;;;;;;;;;;5003573;28;20133;-65
2022/09/23 12:21:15;;;;;;;6.57;4.68;;;;;;;;;;5010068;28;20019;-65
2022/09/23 12:23:52;;;;;;;9.48;4.72;;;;;;;;;;5012422;28;20034;-65
2022/09/23 12:26:20;;;;;;;8.50;4.68;;;;;;;;;;5009162;28;20038;-65
2022/09/23 12:28:48;;;;;;;8.65;5.32;;;;;;;;;;5007837;28;20057;-65
2022/09/23 12:31:20;;;;;;;9.10;5.78;;;;;;;;;;5007629;28;20049;-65
2022/09/23 12:33:50;;;;;;;9.80;5.22;;;;;;;;;;5011637;28;20026;-65
2022/09/23 12:36:16;;;;;;;8.73;5.45;;;;;;;;;;5008908;28;20137;-65
2022/09/23 12:38:53;;;;;;;8.15;5.53;;;;;;;;;;5011114;28;20029;-64
2022/09/23 12:41:35;;;;;;;8.43;5.07;;;;;;;;;;5009446;28;20073;-65
2022/09/23 12:44:11;;;;;;;7.30;4.57;;;;;;;;;;5001539;28;20022;-65
2022/09/23 12:46:38;;;;;;;7.35;5.07;;;;;;;;;;5004172;28;20030;-65
2022/09/23 12:49:06;;;;;;;8.00;5.10;;;;;;;;;;5000379;28;20121;-65
2022/09/23 12:51:35;;;;;;;9.32;5.57;;;;;;;;;;5003969;28;20148;-65
2022/09/23 12:54:04;;;;;;;7.22;5.00;;;;;;;;;;5015661;28;20117;-65
2022/09/23 12:56:30;;;;;;;11.15;5.18;;;;;;;;;;5012439;28;20044;-65
2022/09/23 12:58:57;;;;;;;7.80;4.85;;;;;;;;;;5007750;28;20030;-65
2022/09/23 13:01:25;;;;;;;7.70;5.00;;;;;;;;;;5005529;28;20064;-65
2022/09/23 13:06:52;;;;;;;8.25;5.10;;;;;;;;;;5001820;28;20359;-65
2022/09/23 13:09:20;;;;;;;7.57;4.15;;;;;;;;;;5007861;28;20437;-65
2022/09/23 13:11:47;;;;;;;5.75;4.05;;;;;;;;;;5003030;28;20048;-64
2022/09/23 13:14:20;;;;;;;13.60;11.15;;;;;;;;;;5002294;28;20068;-65
2022/09/23 13:16:46;;;;;;;5.43;4.03;;;;;;;;;;5004132;28;20033;-65
2022/09/23 13:19:27;;;;;;;4.88;3.65;;;;;;;;;;4999988;28;20030;-65
2022/09/23 13:21:53;;;;;;;23.38;20.67;;;;;;;;;;5006699;28;20132;-65
2022/09/23 13:24:33;;;;;;;8.00;4.85;;;;;;;;;;5000275;28;20025;-65
2022/09/23 13:27:00;;;;;;;7.50;5.75;;;;;;;;;;5005463;28;20036;-65
2022/09/23 13:29:27;;;;;;;5.88;3.75;;;;;;;;;;5006260;28;20053;-65
2022/09/23 13:31:56;;;;;;;5.97;4.28;;;;;;;;;;5007013;28;20062;-65
2022/09/23 13:34:24;;;;;;;6.03;5.07;;;;;;;;;;5006264;28;20081;-65
2022/09/23 13:36:50;;;;;;;8.43;6.68;;;;;;;;;;4999818;28;20030;-65
2022/09/23 13:39:26;;;;;;;6.95;5.05;;;;;;;;;;5004661;28;20061;-65
2022/09/23 13:41:55;;;;;;;7.13;3.90;;;;;;;;;;5010581;28;20048;-65
2022/09/23 13:44:22;;;;;;;6.20;4.63;;;;;;;;;;4999709;28;20026;-65
2022/09/23 13:46:54;;;;;;;6.32;4.13;;;;;;;;;;5004942;28;20045;-65
2022/09/23 13:49:32;;;;;;;8.73;4.82;;;;;;;;;;5006866;28;20124;-65
2022/09/23 13:52:00;;;;;;;8.05;4.57;;;;;;;;;;5003644;28;20038;-65
2022/09/23 13:54:30;;;;;;;12.77;6.28;;;;;;;;;;5003147;28;20021;-65
2022/09/23 13:56:57;;;;;;;8.25;5.45;;;;;;;;;;5008125;28;20029;-65
2022/09/23 13:59:24;;;;;;;9.38;5.55;;;;;;;;;;4997246;28;20045;-65
2022/09/23 14:01:50;;;;;;;6.90;4.82;;;;;;;;;;5002755;28;20041;-65
2022/09/23 14:04:25;;;;;;;8.85;5.55;;;;;;;;;;5002692;28;20034;-65
2022/09/23 14:06:52;;;;;;;10.43;5.90;;;;;;;;;;5008244;28;20758;-65
2022/09/23 14:09:20;;;;;;;7.45;4.25;;;;;;;;;;5007659;28;20466;-65
2022/09/23 14:11:46;;;;;;;5.13;3.75;;;;;;;;;;5005254;28;20465;-65
2022/09/23 14:14:14;;;;;;;10.32;4.50;;;;;;;;;;5000898;28;20125;-65
2022/09/23 14:16:41;;;;;;;9.48;4.70;;;;;;;;;;5004068;28;20363;-65
2022/09/23 14:19:10;;;;;;;10.07;4.50;;;;;;;;;;5000882;28;20026;-65
2022/09/23 14:21:37;;;;;;;7.35;4.97;;;;;;;;;;5006035;28;20036;-65
2022/09/23 14:24:10;;;;;;;8.60;4.75;;;;;;;;;;5003375;28;20037;-65
2022/09/23 14:26:36;;;;;;;6.20;5.03;;;;;;;;;;5011273;28;20029;-65
2022/09/23 14:29:02;;;;;;;12.43;5.47;;;;;;;;;;5009694;28;20031;-65
2022/09/23 14:31:28;;;;;;;13.70;5.85;;;;;;;;;;5011172;28;20041;-65
2022/09/23 14:33:54;;;;;;;10.43;5.43;;;;;;;;;;5011122;28;20118;-65
2022/09/23 14:39:08;;;;;;;14.77;6.32;;;;;;;;;;5011687;28;20456;-65
2022/09/23 14:41:37;;;;;;;8.63;5.35;;;;;;;;;;5010840;28;20030;-65
2022/09/23 14:44:03;;;;;;;11.38;5.30;;;;;;;;;;5009707;28;20046;-65
2022/09/23 14:46:31;;;;;;;9.98;5.28;;;;;;;;;;5012849;28;20135;-65
2022/09/23 14:49:00;;;;;;;11.25;5.07;;;;;;;;;;5011744;28;20034;-65
2022/09/23 14:51:31;;;;;;;11.32;5.35;;;;;;;;;;5007691;28;20109;-65
2022/09/23 14:54:17;;;;;;;11.98;5.88;;;;;;;;;;5006111;28;20034;-65
2022/09/23 14:56:43;;;;;;;7.97;4.03;;;;;;;;;;5011843;28;20112;-65
2022/09/23 14:59:22;;;;;;;7.45;3.95;;;;;;;;;;5008043;28;20104;-65
2022/09/23 15:01:48;;;;;;;7.95;4.20;;;;;;;;;;5003804;28;20034;-65
2022/09/23 15:04:29;;;;;;;6.00;3.60;;;;;;;;;;5008376;28;20034;-65
2022/09/23 15:06:56;;;;;;;14.60;5.35;;;;;;;;;;5009412;28;20049;-65